sensor_id;sensor_type;location;lat;lon;timestamp;temperature;humidity
18805;DHT22;9530;48.930;9.526;2022-10-16T00:00:29;15.10;99.90
18805;DHT22;9530;48.930;9.526;2022-10-16T00:02:56;15.10;99.90
18805;DHT22;9530;48.930;9.526;2022-10-16T00:05:24;15.10;99.90
18805;DHT22;9530;48.930;9.526;2022-10-16T00:07:51;15.10;99.90
18805;DHT22;9530;48.930;9.526;2022-10-16T00:10:18;15.10;99.90
18805;DHT22;9530;48.930;9.526;2022-10-16T00:12:44;15.20;99.90
18805;DHT22;9530;48.930;9.526;2022-10-16T00:15:11;15.20;99.90
18805;DHT22;9530;48.930;9.526;2022-10-16T00:17:38;15.20;99.90
18805;DHT22;9530;48.930;9.526;2022-10-16T00:20:06;15.20;99.90
18805;DHT22;9530;48.930;9.526;2022-10-16T00:22:34;15.20;99.90
18805;DHT22;9530;48.930;9.526;2022-10-16T00:25:00;15.30;99.90
18805;DHT22;9530;48.930;9.526;2022-10-16T00:27:27;15.20;99.90
18805;DHT22;9530;48.930;9.526;2022-10-16T00:29:54;15.30;99.90
18805;DHT22;9530;48.930;9.526;2022-10-16T00:32:21;15.20;99.90
18805;DHT22;9530;48.930;9.526;2022-10-16T00:34:47;15.20;99.90
18805;DHT22;9530;48.930;9.526;2022-10-16T00:37:14;15.20;99.90
18805;DHT22;9530;48.930;9.526;2022-10-16T00:39:42;15.20;99.90
18805;DHT22;9530;48.930;9.526;2022-10-16T00:42:14;15.20;99.90
18805;DHT22;9530;48.930;9.526;2022-10-16T00:44:45;15.10;99.90
18805;DHT22;9530;48.930;9.526;2022-10-16T00:47:17;15.20;99.90
18805;DHT22;9530;48.930;9.526;2022-10-16T00:49:46;15.20;99.90
18805;DHT22;9530;48.930;9.526;2022-10-16T00:52:14;15.20;99.90
18805;DHT22;9530;48.930;9.526;2022-10-16T00:54:43;15.20;99.90
18805;DHT22;9530;48.930;9.526;2022-10-16T00:57:10;15.40;99.90
18805;DHT22;9530;48.930;9.526;2022-10-16T00:59:39;15.40;99.90
18805;DHT22;9530;48.930;9.526;2022-10-16T01:02:08;15.50;99.90
18805;DHT22;9530;48.930;9.526;2022-10-16T01:04:37;15.40;99.90
18805;DHT22;9530;48.930;9.526;2022-10-16T01:07:11;15.50;99.90
18805;DHT22;9530;48.930;9.526;2022-10-16T01:09:51;15.50;99.90
18805;DHT22;9530;48.930;9.526;2022-10-16T01:12:26;15.50;99.90
18805;DHT22;9530;48.930;9.526;2022-10-16T01:14:59;15.50;99.90
18805;DHT22;9530;48.930;9.526;2022-10-16T01:17:30;15.60;99.90
18805;DHT22;9530;48.930;9.526;2022-10-16T01:20:06;15.60;99.90
18805;DHT22;9530;48.930;9.526;2022-10-16T01:22:46;15.40;99.90
18805;DHT22;9530;48.930;9.526;2022-10-16T01:25:19;15.40;99.90
18805;DHT22;9530;48.930;9.526;2022-10-16T01:27:50;15.30;99.90
18805;DHT22;9530;48.930;9.526;2022-10-16T01:30:21;15.30;99.90
18805;DHT22;9530;48.930;9.526;2022-10-16T01:32:51;15.30;99.90
18805;DHT22;9530;48.930;9.526;2022-10-16T01:35:23;15.20;99.90
18805;DHT22;9530;48.930;9.526;2022-10-16T01:37:53;15.20;99.90
18805;DHT22;9530;48.930;9.526;2022-10-16T01:40:24;15.20;99.90
18805;DHT22;9530;48.930;9.526;2022-10-16T01:42:56;15.10;99.90
18805;DHT22;9530;48.930;9.526;2022-10-16T01:45:23;15.20;99.90
18805;DHT22;9530;48.930;9.526;2022-10-16T01:47:51;15.20;99.90
18805;DHT22;9530;48.930;9.526;2022-10-16T01:50:19;15.10;99.90
18805;DHT22;9530;48.930;9.526;2022-10-16T01:52:49;15.10;99.90
18805;DHT22;9530;48.930;9.526;2022-10-16T01:55:20;15.20;99.90
18805;DHT22;9530;48.930;9.526;2022-10-16T01:57:49;15.10;99.90
18805;DHT22;9530;48.930;9.526;2022-10-16T02:00:20;15.20;99.90
18805;DHT22;9530;48.930;9.526;2022-10-16T02:02:51;15.20;99.90
18805;DHT22;9530;48.930;9.526;2022-10-16T02:05:22;15.30;99.90
18805;DHT22;9530;48.930;9.526;2022-10-16T02:07:49;15.30;99.90
18805;DHT22;9530;48.930;9.526;2022-10-16T02:10:16;15.40;99.90
18805;DHT22;9530;48.930;9.526;2022-10-16T02:12:46;15.40;99.90
18805;DHT22;9530;48.930;9.526;2022-10-16T02:15:14;15.40;99.90
18805;DHT22;9530;48.930;9.526;2022-10-16T02:17:42;15.40;99.90
18805;DHT22;9530;48.930;9.526;2022-10-16T02:20:10;15.40;99.90
18805;DHT22;9530;48.930;9.526;2022-10-16T02:22:39;15.40;99.90
18805;DHT22;9530;48.930;9.526;2022-10-16T02:25:09;15.40;99.90
18805;DHT22;9530;48.930;9.526;2022-10-16T02:27:42;15.40;99.90
18805;DHT22;9530;48.930;9.526;2022-10-16T02:30:14;15.40;99.90
18805;DHT22;9530;48.930;9.526;2022-10-16T02:32:48;15.40;99.90
18805;DHT22;9530;48.930;9.526;2022-10-16T02:35:17;15.40;99.90
18805;DHT22;9530;48.930;9.526;2022-10-16T02:37:45;15.40;99.90
18805;DHT22;9530;48.930;9.526;2022-10-16T02:40:13;15.30;99.90
18805;DHT22;9530;48.930;9.526;2022-10-16T02:42:40;15.30;99.90
18805;DHT22;9530;48.930;9.526;2022-10-16T02:45:09;15.30;99.90
18805;DHT22;9530;48.930;9.526;2022-10-16T02:47:36;15.30;99.90
18805;DHT22;9530;48.930;9.526;2022-10-16T02:50:05;15.30;99.90
18805;DHT22;9530;48.930;9.526;2022-10-16T02:52:32;15.30;99.90
18805;DHT22;9530;48.930;9.526;2022-10-16T02:54:59;15.30;99.90
18805;DHT22;9530;48.930;9.526;2022-10-16T02:57:26;15.30;99.90
18805;DHT22;9530;48.930;9.526;2022-10-16T02:59:52;15.30;99.90
18805;DHT22;9530;48.930;9.526;2022-10-16T03:02:19;15.30;99.90
18805;DHT22;9530;48.930;9.526;2022-10-16T03:04:46;15.20;99.90
18805;DHT22;9530;48.930;9.526;2022-10-16T03:07:14;15.20;99.90
18805;DHT22;9530;48.930;9.526;2022-10-16T03:09:41;15.10;99.90
18805;DHT22;9530;48.930;9.526;2022-10-16T03:12:08;15.00;99.90
18805;DHT22;9530;48.930;9.526;2022-10-16T03:14:34;15.00;99.90
18805;DHT22;9530;48.930;9.526;2022-10-16T03:17:01;15.00;99.90
18805;DHT22;9530;48.930;9.526;2022-10-16T03:19:28;14.90;99.90
18805;DHT22;9530;48.930;9.526;2022-10-16T03:21:54;14.90;99.90
18805;DHT22;9530;48.930;9.526;2022-10-16T03:24:22;14.90;99.90
18805;DHT22;9530;48.930;9.526;2022-10-16T03:26:49;14.90;99.90
18805;DHT22;9530;48.930;9.526;2022-10-16T03:29:16;14.90;99.90
18805;DHT22;9530;48.930;9.526;2022-10-16T03:31:42;14.90;99.90
18805;DHT22;9530;48.930;9.526;2022-10-16T03:34:09;14.90;99.90
18805;DHT22;9530;48.930;9.526;2022-10-16T03:36:36;14.80;99.90
18805;DHT22;9530;48.930;9.526;2022-10-16T03:39:03;14.80;99.90
18805;DHT22;9530;48.930;9.526;2022-10-16T03:41:31;14.70;99.90
18805;DHT22;9530;48.930;9.526;2022-10-16T03:43:57;14.80;99.90
18805;DHT22;9530;48.930;9.526;2022-10-16T03:46:24;14.70;99.90
18805;DHT22;9530;48.930;9.526;2022-10-16T03:48:51;14.70;99.90
18805;DHT22;9530;48.930;9.526;2022-10-16T03:51:18;14.70;99.90
18805;DHT22;9530;48.930;9.526;2022-10-16T03:53:44;14.60;99.90
18805;DHT22;9530;48.930;9.526;2022-10-16T03:56:11;14.60;99.90
18805;DHT22;9530;48.930;9.526;2022-10-16T03:58:39;14.50;99.90
18805;DHT22;9530;48.930;9.526;2022-10-16T04:01:06;14.50;99.90
18805;DHT22;9530;48.930;9.526;2022-10-16T04:03:33;14.50;99.90
18805;DHT22;9530;48.930;9.526;2022-10-16T04:05:59;14.50;99.90
18805;DHT22;9530;48.930;9.526;2022-10-16T04:08:26;14.50;99.90
18805;DHT22;9530;48.930;9.526;2022-10-16T04:10:53;14.50;99.90
18805;DHT22;9530;48.930;9.526;2022-10-16T04:13:19;14.50;99.90
18805;DHT22;9530;48.930;9.526;2022-10-16T04:15:47;14.40;99.90
18805;DHT22;9530;48.930;9.526;2022-10-16T04:18:14;14.50;99.90
18805;DHT22;9530;48.930;9.526;2022-10-16T04:20:41;14.40;99.90
18805;DHT22;9530;48.930;9.526;2022-10-16T04:23:08;14.40;99.90
18805;DHT22;9530;48.930;9.526;2022-10-16T04:25:34;14.40;99.90
18805;DHT22;9530;48.930;9.526;2022-10-16T04:28:01;14.30;99.90
18805;DHT22;9530;48.930;9.526;2022-10-16T04:30:28;14.30;99.90
18805;DHT22;9530;48.930;9.526;2022-10-16T04:32:56;14.30;99.90
18805;DHT22;9530;48.930;9.526;2022-10-16T04:35:22;14.30;99.90
18805;DHT22;9530;48.930;9.526;2022-10-16T04:37:49;14.30;99.90
18805;DHT22;9530;48.930;9.526;2022-10-16T04:40:16;14.20;99.90
18805;DHT22;9530;48.930;9.526;2022-10-16T04:42:43;14.20;99.90
18805;DHT22;9530;48.930;9.526;2022-10-16T04:45:10;14.20;99.90
18805;DHT22;9530;48.930;9.526;2022-10-16T04:47:36;14.20;99.90
18805;DHT22;9530;48.930;9.526;2022-10-16T04:50:05;14.10;99.90
18805;DHT22;9530;48.930;9.526;2022-10-16T04:52:32;14.20;99.90
18805;DHT22;9530;48.930;9.526;2022-10-16T04:54:59;14.20;99.90
18805;DHT22;9530;48.930;9.526;2022-10-16T04:57:28;14.20;99.90
18805;DHT22;9530;48.930;9.526;2022-10-16T04:59:55;14.20;99.90
18805;DHT22;9530;48.930;9.526;2022-10-16T05:02:22;14.20;99.90
18805;DHT22;9530;48.930;9.526;2022-10-16T05:04:49;14.10;99.90
18805;DHT22;9530;48.930;9.526;2022-10-16T05:07:17;14.10;99.90
18805;DHT22;9530;48.930;9.526;2022-10-16T05:09:43;14.10;99.90
18805;DHT22;9530;48.930;9.526;2022-10-16T05:12:10;14.10;99.90
18805;DHT22;9530;48.930;9.526;2022-10-16T05:14:37;14.10;99.90
18805;DHT22;9530;48.930;9.526;2022-10-16T05:17:03;14.10;99.90
18805;DHT22;9530;48.930;9.526;2022-10-16T05:19:30;14.10;99.90
18805;DHT22;9530;48.930;9.526;2022-10-16T05:21:57;14.10;99.90
18805;DHT22;9530;48.930;9.526;2022-10-16T05:24:25;14.00;99.90
18805;DHT22;9530;48.930;9.526;2022-10-16T05:26:52;14.10;99.90
18805;DHT22;9530;48.930;9.526;2022-10-16T05:29:19;14.20;99.90
18805;DHT22;9530;48.930;9.526;2022-10-16T05:31:46;14.20;99.90
18805;DHT22;9530;48.930;9.526;2022-10-16T05:34:13;14.20;99.90
18805;DHT22;9530;48.930;9.526;2022-10-16T05:36:39;14.20;99.90
18805;DHT22;9530;48.930;9.526;2022-10-16T05:39:06;14.20;99.90
18805;DHT22;9530;48.930;9.526;2022-10-16T05:41:34;14.20;99.90
18805;DHT22;9530;48.930;9.526;2022-10-16T05:44:04;14.20;99.90
18805;DHT22;9530;48.930;9.526;2022-10-16T05:46:32;14.30;99.90
18805;DHT22;9530;48.930;9.526;2022-10-16T05:48:58;14.30;99.90
18805;DHT22;9530;48.930;9.526;2022-10-16T05:51:25;14.20;99.90
18805;DHT22;9530;48.930;9.526;2022-10-16T05:53:52;14.20;99.90
18805;DHT22;9530;48.930;9.526;2022-10-16T05:56:19;14.20;99.90
18805;DHT22;9530;48.930;9.526;2022-10-16T05:58:47;14.20;99.90
18805;DHT22;9530;48.930;9.526;2022-10-16T06:01:16;14.10;99.90
18805;DHT22;9530;48.930;9.526;2022-10-16T06:03:43;14.10;99.90
18805;DHT22;9530;48.930;9.526;2022-10-16T06:06:11;14.10;99.90
18805;DHT22;9530;48.930;9.526;2022-10-16T06:08:39;14.10;99.90
18805;DHT22;9530;48.930;9.526;2022-10-16T06:11:07;14.10;99.90
18805;DHT22;9530;48.930;9.526;2022-10-16T06:13:34;14.10;99.90
18805;DHT22;9530;48.930;9.526;2022-10-16T06:16:03;14.10;99.90
18805;DHT22;9530;48.930;9.526;2022-10-16T06:18:30;14.10;99.90
18805;DHT22;9530;48.930;9.526;2022-10-16T06:20:57;14.20;99.90
18805;DHT22;9530;48.930;9.526;2022-10-16T06:23:24;14.20;99.90
18805;DHT22;9530;48.930;9.526;2022-10-16T06:25:51;14.20;99.90
18805;DHT22;9530;48.930;9.526;2022-10-16T06:28:18;14.30;99.90
18805;DHT22;9530;48.930;9.526;2022-10-16T06:30:45;14.30;99.90
18805;DHT22;9530;48.930;9.526;2022-10-16T06:33:13;14.30;99.90
18805;DHT22;9530;48.930;9.526;2022-10-16T06:35:40;14.30;99.90
18805;DHT22;9530;48.930;9.526;2022-10-16T06:38:07;14.30;99.90
18805;DHT22;9530;48.930;9.526;2022-10-16T06:40:33;14.30;99.90
18805;DHT22;9530;48.930;9.526;2022-10-16T06:43:00;14.40;99.90
18805;DHT22;9530;48.930;9.526;2022-10-16T06:45:27;14.40;99.90
18805;DHT22;9530;48.930;9.526;2022-10-16T06:47:53;14.50;99.90
18805;DHT22;9530;48.930;9.526;2022-10-16T06:50:21;14.60;99.90
18805;DHT22;9530;48.930;9.526;2022-10-16T06:52:48;14.70;99.90
18805;DHT22;9530;48.930;9.526;2022-10-16T06:55:15;14.80;99.90
18805;DHT22;9530;48.930;9.526;2022-10-16T06:57:42;14.80;99.90
18805;DHT22;9530;48.930;9.526;2022-10-16T07:00:10;14.90;99.90
18805;DHT22;9530;48.930;9.526;2022-10-16T07:02:36;14.90;99.90
18805;DHT22;9530;48.930;9.526;2022-10-16T07:05:04;15.00;99.90
18805;DHT22;9530;48.930;9.526;2022-10-16T07:07:32;15.10;99.90
18805;DHT22;9530;48.930;9.526;2022-10-16T07:09:58;15.20;99.90
18805;DHT22;9530;48.930;9.526;2022-10-16T07:12:25;15.20;99.90
18805;DHT22;9530;48.930;9.526;2022-10-16T07:14:52;15.20;99.90
18805;DHT22;9530;48.930;9.526;2022-10-16T07:17:21;15.30;99.90
18805;DHT22;9530;48.930;9.526;2022-10-16T07:19:47;15.40;99.90
18805;DHT22;9530;48.930;9.526;2022-10-16T07:22:14;15.50;99.90
18805;DHT22;9530;48.930;9.526;2022-10-16T07:24:42;15.60;99.90
18805;DHT22;9530;48.930;9.526;2022-10-16T07:27:09;15.80;99.90
18805;DHT22;9530;48.930;9.526;2022-10-16T07:29:36;16.00;99.90
18805;DHT22;9530;48.930;9.526;2022-10-16T07:32:03;16.00;99.90
18805;DHT22;9530;48.930;9.526;2022-10-16T07:34:30;16.20;99.90
18805;DHT22;9530;48.930;9.526;2022-10-16T07:36:56;16.30;99.90
18805;DHT22;9530;48.930;9.526;2022-10-16T07:39:23;16.40;99.90
18805;DHT22;9530;48.930;9.526;2022-10-16T07:41:51;16.50;99.90
18805;DHT22;9530;48.930;9.526;2022-10-16T07:44:18;16.40;99.90
18805;DHT22;9530;48.930;9.526;2022-10-16T07:46:45;16.40;99.90
18805;DHT22;9530;48.930;9.526;2022-10-16T07:49:11;16.40;99.90
18805;DHT22;9530;48.930;9.526;2022-10-16T07:51:38;16.30;99.90
18805;DHT22;9530;48.930;9.526;2022-10-16T07:54:05;16.30;99.90
18805;DHT22;9530;48.930;9.526;2022-10-16T07:56:32;16.20;99.90
18805;DHT22;9530;48.930;9.526;2022-10-16T07:59:00;16.10;99.90
18805;DHT22;9530;48.930;9.526;2022-10-16T08:01:27;16.10;99.90
18805;DHT22;9530;48.930;9.526;2022-10-16T08:03:53;16.00;99.90
18805;DHT22;9530;48.930;9.526;2022-10-16T08:06:21;15.90;99.90
18805;DHT22;9530;48.930;9.526;2022-10-16T08:08:48;15.90;99.90
18805;DHT22;9530;48.930;9.526;2022-10-16T08:11:15;16.00;99.90
18805;DHT22;9530;48.930;9.526;2022-10-16T08:13:42;16.00;99.90
18805;DHT22;9530;48.930;9.526;2022-10-16T08:16:11;16.10;99.90
18805;DHT22;9530;48.930;9.526;2022-10-16T08:18:39;16.20;99.90
18805;DHT22;9530;48.930;9.526;2022-10-16T08:21:07;16.30;99.90
18805;DHT22;9530;48.930;9.526;2022-10-16T08:23:34;16.40;99.90
18805;DHT22;9530;48.930;9.526;2022-10-16T08:26:05;16.60;99.90
18805;DHT22;9530;48.930;9.526;2022-10-16T08:28:32;16.80;99.90
18805;DHT22;9530;48.930;9.526;2022-10-16T08:31:06;17.10;99.90
18805;DHT22;9530;48.930;9.526;2022-10-16T08:33:34;17.30;99.90
18805;DHT22;9530;48.930;9.526;2022-10-16T08:36:01;17.50;99.90
18805;DHT22;9530;48.930;9.526;2022-10-16T08:38:28;17.40;99.90
18805;DHT22;9530;48.930;9.526;2022-10-16T08:40:57;17.50;99.90
18805;DHT22;9530;48.930;9.526;2022-10-16T08:43:40;17.60;99.90
18805;DHT22;9530;48.930;9.526;2022-10-16T08:46:24;17.70;99.90
18805;DHT22;9530;48.930;9.526;2022-10-16T08:48:59;18.00;99.90
18805;DHT22;9530;48.930;9.526;2022-10-16T08:51:28;18.30;99.90
18805;DHT22;9530;48.930;9.526;2022-10-16T08:53:57;18.40;99.90
18805;DHT22;9530;48.930;9.526;2022-10-16T08:56:24;18.60;99.90
18805;DHT22;9530;48.930;9.526;2022-10-16T08:58:52;18.80;99.90
18805;DHT22;9530;48.930;9.526;2022-10-16T09:01:22;18.90;99.90
18805;DHT22;9530;48.930;9.526;2022-10-16T09:04:17;19.10;99.90
18805;DHT22;9530;48.930;9.526;2022-10-16T09:06:53;19.30;99.90
18805;DHT22;9530;48.930;9.526;2022-10-16T09:09:40;19.70;99.90
18805;DHT22;9530;48.930;9.526;2022-10-16T09:12:14;19.80;99.90
18805;DHT22;9530;48.930;9.526;2022-10-16T09:14:52;19.80;99.90
18805;DHT22;9530;48.930;9.526;2022-10-16T09:17:32;19.90;99.90
18805;DHT22;9530;48.930;9.526;2022-10-16T09:22:57;19.80;99.90
18805;DHT22;9530;48.930;9.526;2022-10-16T09:25:26;19.70;99.90
18805;DHT22;9530;48.930;9.526;2022-10-16T09:27:54;19.70;99.90
18805;DHT22;9530;48.930;9.526;2022-10-16T09:30:22;19.60;99.90
18805;DHT22;9530;48.930;9.526;2022-10-16T09:32:52;19.50;99.90
18805;DHT22;9530;48.930;9.526;2022-10-16T09:35:24;19.40;99.90
18805;DHT22;9530;48.930;9.526;2022-10-16T09:37:54;19.30;99.90
18805;DHT22;9530;48.930;9.526;2022-10-16T09:40:26;19.40;99.90
18805;DHT22;9530;48.930;9.526;2022-10-16T09:43:06;19.40;99.90
18805;DHT22;9530;48.930;9.526;2022-10-16T09:45:39;19.50;99.90
18805;DHT22;9530;48.930;9.526;2022-10-16T09:48:11;19.50;99.90
18805;DHT22;9530;48.930;9.526;2022-10-16T09:50:40;19.50;99.90
18805;DHT22;9530;48.930;9.526;2022-10-16T09:53:11;19.60;99.90
18805;DHT22;9530;48.930;9.526;2022-10-16T09:55:48;19.50;99.90
18805;DHT22;9530;48.930;9.526;2022-10-16T09:58:15;19.60;99.90
18805;DHT22;9530;48.930;9.526;2022-10-16T10:00:49;19.60;99.90
18805;DHT22;9530;48.930;9.526;2022-10-16T10:03:35;19.70;99.90
18805;DHT22;9530;48.930;9.526;2022-10-16T10:06:14;19.70;99.90
18805;DHT22;9530;48.930;9.526;2022-10-16T10:09:03;19.70;99.90
18805;DHT22;9530;48.930;9.526;2022-10-16T10:11:45;19.70;99.90
18805;DHT22;9530;48.930;9.526;2022-10-16T10:14:21;19.70;99.90
18805;DHT22;9530;48.930;9.526;2022-10-16T10:16:50;19.70;99.90
18805;DHT22;9530;48.930;9.526;2022-10-16T10:19:19;19.80;99.90
18805;DHT22;9530;48.930;9.526;2022-10-16T10:21:48;19.90;99.90
18805;DHT22;9530;48.930;9.526;2022-10-16T10:24:16;20.10;99.90
18805;DHT22;9530;48.930;9.526;2022-10-16T10:26:49;20.30;99.90
18805;DHT22;9530;48.930;9.526;2022-10-16T10:29:30;20.30;99.90
18805;DHT22;9530;48.930;9.526;2022-10-16T10:32:08;20.40;99.90
18805;DHT22;9530;48.930;9.526;2022-10-16T10:34:47;20.30;99.90
18805;DHT22;9530;48.930;9.526;2022-10-16T10:37:29;20.30;99.90
18805;DHT22;9530;48.930;9.526;2022-10-16T10:40:07;20.30;99.90
18805;DHT22;9530;48.930;9.526;2022-10-16T10:42:42;20.20;99.90
18805;DHT22;9530;48.930;9.526;2022-10-16T10:45:18;20.40;99.90
18805;DHT22;9530;48.930;9.526;2022-10-16T10:47:59;20.40;99.90
18805;DHT22;9530;48.930;9.526;2022-10-16T10:50:35;20.50;99.90
18805;DHT22;9530;48.930;9.526;2022-10-16T10:53:12;20.50;99.90
18805;DHT22;9530;48.930;9.526;2022-10-16T10:55:47;20.90;99.90
18805;DHT22;9530;48.930;9.526;2022-10-16T11:01:13;21.60;99.90
18805;DHT22;9530;48.930;9.526;2022-10-16T11:03:57;22.00;99.90
18805;DHT22;9530;48.930;9.526;2022-10-16T11:06:28;22.20;99.90
18805;DHT22;9530;48.930;9.526;2022-10-16T11:09:00;22.30;99.90
18805;DHT22;9530;48.930;9.526;2022-10-16T11:11:31;22.60;99.90
18805;DHT22;9530;48.930;9.526;2022-10-16T11:14:03;22.80;99.90
18805;DHT22;9530;48.930;9.526;2022-10-16T11:16:35;22.90;99.90
18805;DHT22;9530;48.930;9.526;2022-10-16T11:19:10;22.90;99.90
18805;DHT22;9530;48.930;9.526;2022-10-16T11:21:43;22.90;99.90
18805;DHT22;9530;48.930;9.526;2022-10-16T11:24:20;22.90;99.90
18805;DHT22;9530;48.930;9.526;2022-10-16T11:26:49;22.70;99.90
18805;DHT22;9530;48.930;9.526;2022-10-16T11:29:20;22.80;99.90
18805;DHT22;9530;48.930;9.526;2022-10-16T11:31:52;22.80;99.90
18805;DHT22;9530;48.930;9.526;2022-10-16T11:34:24;22.80;99.90
18805;DHT22;9530;48.930;9.526;2022-10-16T11:36:56;22.60;99.90
18805;DHT22;9530;48.930;9.526;2022-10-16T11:39:27;22.60;99.90
18805;DHT22;9530;48.930;9.526;2022-10-16T11:41:59;22.50;99.90
18805;DHT22;9530;48.930;9.526;2022-10-16T11:44:38;22.30;99.90
18805;DHT22;9530;48.930;9.526;2022-10-16T11:47:16;22.40;99.90
18805;DHT22;9530;48.930;9.526;2022-10-16T11:49:47;22.40;99.90
18805;DHT22;9530;48.930;9.526;2022-10-16T11:52:19;22.30;99.90
18805;DHT22;9530;48.930;9.526;2022-10-16T11:54:51;22.20;99.90
18805;DHT22;9530;48.930;9.526;2022-10-16T11:57:22;22.30;99.90
18805;DHT22;9530;48.930;9.526;2022-10-16T11:59:52;22.30;99.90
18805;DHT22;9530;48.930;9.526;2022-10-16T12:02:36;22.40;99.90
18805;DHT22;9530;48.930;9.526;2022-10-16T12:05:15;22.30;99.90
18805;DHT22;9530;48.930;9.526;2022-10-16T12:07:50;22.20;99.90
18805;DHT22;9530;48.930;9.526;2022-10-16T12:10:26;22.30;99.90
18805;DHT22;9530;48.930;9.526;2022-10-16T12:12:53;22.40;99.90
18805;DHT22;9530;48.930;9.526;2022-10-16T12:15:24;22.40;99.90
18805;DHT22;9530;48.930;9.526;2022-10-16T12:17:51;22.50;99.90
18805;DHT22;9530;48.930;9.526;2022-10-16T12:20:25;22.40;99.90
18805;DHT22;9530;48.930;9.526;2022-10-16T12:22:54;22.40;99.90
18805;DHT22;9530;48.930;9.526;2022-10-16T12:25:25;22.40;99.90
18805;DHT22;9530;48.930;9.526;2022-10-16T12:27:55;22.30;99.90
18805;DHT22;9530;48.930;9.526;2022-10-16T12:30:24;22.40;99.90
18805;DHT22;9530;48.930;9.526;2022-10-16T12:32:55;22.60;99.90
18805;DHT22;9530;48.930;9.526;2022-10-16T12:35:25;22.60;99.90
18805;DHT22;9530;48.930;9.526;2022-10-16T12:37:53;22.70;99.90
18805;DHT22;9530;48.930;9.526;2022-10-16T12:40:30;22.60;99.90
18805;DHT22;9530;48.930;9.526;2022-10-16T12:42:57;22.60;99.90
18805;DHT22;9530;48.930;9.526;2022-10-16T12:45:27;22.50;99.90
18805;DHT22;9530;48.930;9.526;2022-10-16T12:47:55;22.30;99.90
18805;DHT22;9530;48.930;9.526;2022-10-16T12:50:28;22.30;99.90
18805;DHT22;9530;48.930;9.526;2022-10-16T12:52:57;22.40;99.90
18805;DHT22;9530;48.930;9.526;2022-10-16T12:55:24;22.40;99.90
18805;DHT22;9530;48.930;9.526;2022-10-16T12:58:09;22.30;99.90
18805;DHT22;9530;48.930;9.526;2022-10-16T13:00:44;22.20;99.90
18805;DHT22;9530;48.930;9.526;2022-10-16T13:06:30;22.30;99.90
18805;DHT22;9530;48.930;9.526;2022-10-16T13:09:12;22.30;99.90
18805;DHT22;9530;48.930;9.526;2022-10-16T13:11:56;22.30;99.90
18805;DHT22;9530;48.930;9.526;2022-10-16T13:14:41;22.50;99.90
18805;DHT22;9530;48.930;9.526;2022-10-16T13:17:16;22.60;99.90
18805;DHT22;9530;48.930;9.526;2022-10-16T13:19:48;22.80;99.90
18805;DHT22;9530;48.930;9.526;2022-10-16T13:22:22;22.70;99.90
18805;DHT22;9530;48.930;9.526;2022-10-16T13:25:02;22.70;99.90
18805;DHT22;9530;48.930;9.526;2022-10-16T13:27:41;22.60;99.90
18805;DHT22;9530;48.930;9.526;2022-10-16T13:30:16;22.50;99.90
18805;DHT22;9530;48.930;9.526;2022-10-16T13:32:45;22.50;99.90
18805;DHT22;9530;48.930;9.526;2022-10-16T13:35:21;22.50;99.90
18805;DHT22;9530;48.930;9.526;2022-10-16T13:37:49;22.50;99.90
18805;DHT22;9530;48.930;9.526;2022-10-16T13:40:21;22.50;99.90
18805;DHT22;9530;48.930;9.526;2022-10-16T13:42:48;22.60;99.90
18805;DHT22;9530;48.930;9.526;2022-10-16T13:45:20;22.60;99.90
18805;DHT22;9530;48.930;9.526;2022-10-16T13:47:47;22.60;99.90
18805;DHT22;9530;48.930;9.526;2022-10-16T13:50:15;22.60;99.90
18805;DHT22;9530;48.930;9.526;2022-10-16T13:52:42;22.50;99.90
18805;DHT22;9530;48.930;9.526;2022-10-16T13:55:11;22.50;99.90
18805;DHT22;9530;48.930;9.526;2022-10-16T13:57:38;22.30;99.90
18805;DHT22;9530;48.930;9.526;2022-10-16T14:00:20;22.30;99.90
18805;DHT22;9530;48.930;9.526;2022-10-16T14:02:51;22.20;99.90
18805;DHT22;9530;48.930;9.526;2022-10-16T14:05:19;22.30;99.90
18805;DHT22;9530;48.930;9.526;2022-10-16T14:07:49;22.50;99.90
18805;DHT22;9530;48.930;9.526;2022-10-16T14:10:22;22.70;99.90
18805;DHT22;9530;48.930;9.526;2022-10-16T14:12:55;22.90;99.90
18805;DHT22;9530;48.930;9.526;2022-10-16T14:15:24;23.00;99.90
18805;DHT22;9530;48.930;9.526;2022-10-16T14:17:52;23.00;99.90
18805;DHT22;9530;48.930;9.526;2022-10-16T14:20:24;23.00;99.90
18805;DHT22;9530;48.930;9.526;2022-10-16T14:22:59;23.00;99.90
18805;DHT22;9530;48.930;9.526;2022-10-16T14:25:28;23.10;99.90
18805;DHT22;9530;48.930;9.526;2022-10-16T14:28:00;23.10;99.90
18805;DHT22;9530;48.930;9.526;2022-10-16T14:30:29;23.20;99.90
18805;DHT22;9530;48.930;9.526;2022-10-16T14:32:58;23.10;99.90
18805;DHT22;9530;48.930;9.526;2022-10-16T14:35:27;22.90;99.90
18805;DHT22;9530;48.930;9.526;2022-10-16T14:37:55;22.70;99.90
18805;DHT22;9530;48.930;9.526;2022-10-16T14:40:24;22.50;99.90
18805;DHT22;9530;48.930;9.526;2022-10-16T14:42:51;22.30;99.90
18805;DHT22;9530;48.930;9.526;2022-10-16T14:45:20;22.10;99.90
18805;DHT22;9530;48.930;9.526;2022-10-16T14:47:50;21.90;99.90
18805;DHT22;9530;48.930;9.526;2022-10-16T14:50:18;21.70;99.90
18805;DHT22;9530;48.930;9.526;2022-10-16T14:52:45;21.60;99.90
18805;DHT22;9530;48.930;9.526;2022-10-16T14:55:12;21.50;99.90
18805;DHT22;9530;48.930;9.526;2022-10-16T14:57:39;21.40;99.90
18805;DHT22;9530;48.930;9.526;2022-10-16T15:00:13;21.30;99.90
18805;DHT22;9530;48.930;9.526;2022-10-16T15:02:40;21.30;99.90
18805;DHT22;9530;48.930;9.526;2022-10-16T15:05:14;21.10;99.90
18805;DHT22;9530;48.930;9.526;2022-10-16T15:07:42;21.10;99.90
18805;DHT22;9530;48.930;9.526;2022-10-16T15:10:09;21.10;99.90
18805;DHT22;9530;48.930;9.526;2022-10-16T15:12:36;21.20;99.90
18805;DHT22;9530;48.930;9.526;2022-10-16T15:15:21;21.30;99.90
18805;DHT22;9530;48.930;9.526;2022-10-16T15:17:50;21.30;99.90
18805;DHT22;9530;48.930;9.526;2022-10-16T15:20:20;21.40;99.90
18805;DHT22;9530;48.930;9.526;2022-10-16T15:22:46;21.50;99.90
18805;DHT22;9530;48.930;9.526;2022-10-16T15:25:24;21.60;99.90
18805;DHT22;9530;48.930;9.526;2022-10-16T15:27:52;21.50;99.90
18805;DHT22;9530;48.930;9.526;2022-10-16T15:30:19;21.50;99.90
18805;DHT22;9530;48.930;9.526;2022-10-16T15:32:45;21.40;99.90
18805;DHT22;9530;48.930;9.526;2022-10-16T15:35:12;21.30;99.90
18805;DHT22;9530;48.930;9.526;2022-10-16T15:37:40;21.10;99.90
18805;DHT22;9530;48.930;9.526;2022-10-16T15:40:08;21.00;99.90
18805;DHT22;9530;48.930;9.526;2022-10-16T15:42:35;20.90;99.90
18805;DHT22;9530;48.930;9.526;2022-10-16T15:45:02;20.70;99.90
18805;DHT22;9530;48.930;9.526;2022-10-16T15:47:30;20.60;99.90
18805;DHT22;9530;48.930;9.526;2022-10-16T15:49:56;20.60;99.90
18805;DHT22;9530;48.930;9.526;2022-10-16T15:52:23;20.40;99.90
18805;DHT22;9530;48.930;9.526;2022-10-16T15:54:51;20.40;99.90
18805;DHT22;9530;48.930;9.526;2022-10-16T15:57:18;20.40;99.90
18805;DHT22;9530;48.930;9.526;2022-10-16T15:59:45;20.50;99.90
18805;DHT22;9530;48.930;9.526;2022-10-16T16:02:11;20.60;99.90
18805;DHT22;9530;48.930;9.526;2022-10-16T16:04:38;20.50;99.90
18805;DHT22;9530;48.930;9.526;2022-10-16T16:07:05;20.60;99.90
18805;DHT22;9530;48.930;9.526;2022-10-16T16:09:32;20.80;99.90